createdAt,value
2023-02-08T00:00:44.369Z,-0.21
2023-02-08T00:03:11.279Z,-0.24
2023-02-08T00:05:38.022Z,-0.26
2023-02-08T00:08:04.796Z,-0.26
2023-02-08T00:10:31.732Z,-0.29
2023-02-08T00:12:58.252Z,-0.28
2023-02-08T00:15:24.683Z,-0.31
2023-02-08T00:17:51.162Z,-0.33
2023-02-08T00:20:18.646Z,-0.44
2023-02-08T00:22:45.397Z,-0.39
2023-02-08T00:25:11.911Z,-0.42
2023-02-08T00:27:38.826Z,-0.46
2023-02-08T00:30:05.855Z,-0.45
2023-02-08T00:32:32.379Z,-0.45
2023-02-08T00:34:58.825Z,-0.47
2023-02-08T00:37:25.306Z,-0.52
2023-02-08T00:39:51.835Z,-0.53
2023-02-08T00:42:18.298Z,-0.56
2023-02-08T00:44:45.378Z,-0.61
2023-02-08T00:47:11.835Z,-0.60
2023-02-08T00:49:38.288Z,-0.69
2023-02-08T00:52:04.872Z,-0.64
2023-02-08T00:54:31.427Z,-0.64
2023-02-08T00:56:57.973Z,-0.64
2023-02-08T00:59:24.581Z,-0.71
2023-02-08T01:01:51.037Z,-0.70
2023-02-08T01:04:17.494Z,-0.72
2023-02-08T01:06:43.969Z,-0.73
2023-02-08T01:09:10.475Z,-0.81
2023-02-08T01:11:36.968Z,-0.77
2023-02-08T01:14:03.516Z,-0.78
2023-02-08T01:16:32.017Z,-0.81
2023-02-08T01:19:00.013Z,-0.83
2023-02-08T01:21:29.245Z,-0.81
2023-02-08T01:23:56.380Z,-0.88
2023-02-08T01:26:26.829Z,-0.85
2023-02-08T01:28:54.971Z,-0.84
2023-02-08T01:31:29.139Z,-0.86
2023-02-08T01:33:56.668Z,-0.88
2023-02-08T01:36:24.849Z,-0.94
2023-02-08T01:38:51.855Z,-0.95
2023-02-08T01:41:24.138Z,-0.94
2023-02-08T01:44:11.813Z,-0.95
2023-02-08T01:46:44.127Z,-0.93
2023-02-08T01:49:10.528Z,-0.93
2023-02-08T01:51:48.611Z,-0.98
2023-02-08T01:54:19.157Z,-0.99
2023-02-08T01:56:47.872Z,-1.03
2023-02-08T01:59:26.562Z,-1.01
2023-02-08T02:01:56.246Z,-1.06
2023-02-08T02:04:23.032Z,-1.05
2023-02-08T02:06:53.475Z,-1.07
2023-02-08T02:09:55.083Z,-1.08
2023-02-08T02:12:21.960Z,-1.10
2023-02-08T02:14:48.865Z,-1.09
2023-02-08T02:17:18.471Z,-1.16
2023-02-08T02:19:53.831Z,-1.08
2023-02-08T02:22:32.401Z,-1.10
2023-02-08T02:25:40.006Z,-1.10
2023-02-08T02:28:18.411Z,-1.08
2023-02-08T02:31:22.279Z,-1.13
2023-02-08T02:34:19.788Z,-1.17
2023-02-08T02:36:58.434Z,-1.18
2023-02-08T02:39:55.471Z,-1.24
2023-02-08T02:43:02.224Z,-1.30
2023-02-08T02:46:07.086Z,-1.28
2023-02-08T02:48:39.418Z,-1.29
2023-02-08T02:51:29.061Z,-1.31
2023-02-08T02:54:11.447Z,-1.29
2023-02-08T02:56:43.625Z,-1.33
2023-02-08T02:59:12.292Z,-1.39
2023-02-08T03:01:39.860Z,-1.42
2023-02-08T03:04:17.540Z,-1.41
2023-02-08T03:06:46.994Z,-1.37
2023-02-08T03:09:26.711Z,-1.41
2023-02-08T03:12:09.052Z,-1.44
2023-02-08T03:15:12.937Z,-1.46
2023-02-08T03:17:58.304Z,-1.44
2023-02-08T03:20:50.940Z,-1.42
2023-02-08T03:23:34.878Z,-1.50
2023-02-08T03:26:07.189Z,-1.52
2023-02-08T03:29:13.453Z,-1.59
2023-02-08T03:31:47.316Z,-1.62
2023-02-08T03:34:24.771Z,-1.59
2023-02-08T03:36:58.066Z,-1.59
2023-02-08T03:39:29.034Z,-1.59
2023-02-08T03:42:00.366Z,-1.63
2023-02-08T03:44:37.934Z,-1.67
2023-02-08T03:47:27.027Z,-1.75
2023-02-08T03:49:58.544Z,-1.71
2023-02-08T03:52:26.622Z,-1.68
2023-02-08T03:55:01.907Z,-1.64
2023-02-08T03:57:37.972Z,-1.62
2023-02-08T04:00:09.369Z,-1.62
2023-02-08T04:02:44.389Z,-1.68
2023-02-08T04:05:10.861Z,-1.75
2023-02-08T04:07:37.463Z,-1.76
2023-02-08T04:10:04.679Z,-1.76
2023-02-08T04:12:31.097Z,-1.80
2023-02-08T04:14:57.720Z,-1.78
2023-02-08T04:17:24.221Z,-1.78
2023-02-08T04:19:50.704Z,-1.76
2023-02-08T04:22:22.978Z,-1.79
2023-02-08T04:24:49.474Z,-1.77
2023-02-08T04:27:15.925Z,-1.84
2023-02-08T04:29:42.481Z,-1.83
2023-02-08T04:32:13.327Z,-1.78
2023-02-08T04:34:40.655Z,-1.79
2023-02-08T04:37:08.293Z,-1.82
2023-02-08T04:39:34.760Z,-1.78
2023-02-08T04:42:03.191Z,-1.84
2023-02-08T04:44:32.696Z,-1.87
2023-02-08T04:46:59.994Z,-1.88
2023-02-08T04:49:26.511Z,-1.86
2023-02-08T04:51:52.971Z,-1.85
2023-02-08T04:54:19.642Z,-1.90
2023-02-08T04:56:46.079Z,-1.91
2023-02-08T04:59:12.647Z,-1.98
2023-02-08T05:01:39.141Z,-2.05
2023-02-08T05:04:05.595Z,-2.09
2023-02-08T05:06:32.125Z,-2.13
2023-02-08T05:08:58.565Z,-2.09
2023-02-08T05:11:26.022Z,-2.12
2023-02-08T05:13:52.699Z,-2.12
2023-02-08T05:16:19.191Z,-2.12
2023-02-08T05:18:45.906Z,-2.15
2023-02-08T05:21:12.379Z,-2.13
2023-02-08T05:23:39.007Z,-2.11
2023-02-08T05:26:07.395Z,-2.11
2023-02-08T05:28:34.286Z,-2.13
2023-02-08T05:31:09.377Z,-2.15
2023-02-08T05:33:38.818Z,-2.14
2023-02-08T05:36:05.640Z,-2.11
2023-02-08T05:38:32.192Z,-2.10
2023-02-08T05:40:59.105Z,-2.13
2023-02-08T05:43:25.574Z,-2.13
2023-02-08T05:45:52.079Z,-2.13
2023-02-08T05:48:19.187Z,-2.14
2023-02-08T05:50:45.635Z,-2.14
2023-02-08T05:53:12.132Z,-2.11
2023-02-08T05:55:38.694Z,-2.18
2023-02-08T05:58:05.140Z,-2.18
2023-02-08T06:00:34.800Z,-2.24
2023-02-08T06:03:01.329Z,-2.20
2023-02-08T06:05:27.921Z,-2.25
2023-02-08T06:07:54.389Z,-2.21
2023-02-08T06:10:20.991Z,-2.20
2023-02-08T06:12:47.451Z,-2.20
2023-02-08T06:15:14.091Z,-2.20
2023-02-08T06:17:40.533Z,-2.22
2023-02-08T06:20:07.554Z,-2.22
2023-02-08T06:22:34.987Z,-2.22
2023-02-08T06:25:01.440Z,-2.28
2023-02-08T06:27:27.969Z,-2.19
2023-02-08T06:29:54.444Z,-2.19
2023-02-08T06:32:20.895Z,-2.18
2023-02-08T06:34:50.605Z,-2.20
2023-02-08T06:37:20.040Z,-2.23
2023-02-08T06:39:46.549Z,-2.27
2023-02-08T06:42:13.140Z,-2.25
2023-02-08T06:44:51.396Z,-2.24
2023-02-08T06:47:20.741Z,-2.23
2023-02-08T06:49:47.338Z,-2.26
2023-02-08T06:52:13.793Z,-2.27
2023-02-08T06:54:40.258Z,-2.27
2023-02-08T06:57:08.354Z,-2.29
2023-02-08T06:59:35.024Z,-2.34
2023-02-08T07:02:01.718Z,-2.30
2023-02-08T07:04:28.355Z,-2.33
2023-02-08T07:06:54.825Z,-2.31
2023-02-08T07:09:21.367Z,-2.35
2023-02-08T07:11:47.814Z,-2.32
2023-02-08T07:14:15.225Z,-2.34
2023-02-08T07:16:42.302Z,-2.28
2023-02-08T07:19:08.845Z,-2.27
2023-02-08T07:21:35.269Z,-2.27
2023-02-08T07:24:01.780Z,-2.26
2023-02-08T07:26:28.278Z,-2.19
2023-02-08T07:28:54.796Z,-2.15
2023-02-08T07:31:21.293Z,-2.13
2023-02-08T07:33:47.938Z,-2.10
2023-02-08T07:36:14.452Z,-2.08
2023-02-08T07:38:40.982Z,-2.05
2023-02-08T07:41:10.849Z,-2.04
2023-02-08T07:43:38.790Z,-1.97
2023-02-08T07:46:14.883Z,-1.99
2023-02-08T07:48:41.551Z,-1.90
2023-02-08T07:51:09.720Z,-1.89
2023-02-08T07:53:36.751Z,-1.85
2023-02-08T07:56:03.412Z,-1.85
2023-02-08T07:58:30.080Z,-1.77
2023-02-08T08:00:56.689Z,-1.73
2023-02-08T08:03:23.161Z,-1.70
2023-02-08T08:05:54.962Z,-1.64
2023-02-08T08:08:21.618Z,-1.60
2023-02-08T08:10:49.437Z,-1.53
2023-02-08T08:13:16.240Z,-1.49
2023-02-08T08:15:42.794Z,-1.42
2023-02-08T08:18:09.539Z,-1.35
2023-02-08T08:20:36.069Z,-1.30
2023-02-08T08:23:02.503Z,-1.23
2023-02-08T08:25:29.000Z,-1.22
2023-02-08T08:27:55.716Z,-1.08
2023-02-08T08:30:22.542Z,-1.01
2023-02-08T08:32:49.151Z,-0.97
2023-02-08T08:35:15.645Z,-0.86
2023-02-08T08:37:42.168Z,-0.77
2023-02-08T08:40:09.877Z,-0.67
2023-02-08T08:42:36.807Z,-0.56
2023-02-08T08:45:04.561Z,-0.47
2023-02-08T08:47:31.428Z,-0.39
2023-02-08T08:49:58.025Z,-0.28
2023-02-08T08:52:24.552Z,-0.17
2023-02-08T08:54:51.198Z,-0.04
2023-02-08T08:57:17.746Z,0.11
2023-02-08T08:59:44.329Z,0.23
2023-02-08T09:02:14.053Z,0.39
2023-02-08T09:04:43.680Z,0.49
2023-02-08T09:07:10.776Z,0.64
2023-02-08T09:09:37.452Z,0.75
2023-02-08T09:12:04.365Z,0.91
2023-02-08T09:14:30.924Z,1.05
2023-02-08T09:16:57.809Z,1.18
2023-02-08T09:19:24.811Z,1.32
2023-02-08T09:21:51.638Z,1.45
2023-02-08T09:24:18.227Z,1.60
2023-02-08T09:26:47.480Z,1.77
2023-02-08T09:29:13.922Z,1.90
2023-02-08T09:31:41.818Z,2.05
2023-02-08T09:34:08.623Z,2.19
2023-02-08T09:36:38.612Z,2.38
2023-02-08T09:39:12.656Z,2.55
2023-02-08T09:41:55.709Z,2.74
2023-02-08T09:44:35.487Z,2.91
2023-02-08T09:47:17.060Z,3.09
2023-02-08T09:50:10.635Z,3.31
2023-02-08T09:52:49.957Z,3.50
2023-02-08T09:55:37.376Z,3.71
2023-02-08T09:58:16.690Z,3.85
2023-02-08T10:00:46.811Z,4.00
2023-02-08T10:03:34.967Z,4.21
2023-02-08T10:06:05.599Z,4.39
2023-02-08T10:08:35.553Z,4.54
2023-02-08T10:11:35.150Z,4.70
2023-02-08T10:14:40.196Z,4.88
2023-02-08T10:17:06.791Z,5.07
2023-02-08T10:19:38.891Z,5.18
2023-02-08T10:22:29.817Z,5.36
2023-02-08T10:25:12.726Z,5.55
2023-02-08T10:28:13.395Z,5.68
2023-02-08T10:31:17.514Z,5.81
2023-02-08T10:33:52.408Z,5.99
2023-02-08T10:36:21.403Z,6.15
2023-02-08T10:38:52.329Z,6.34
2023-02-08T10:41:23.446Z,6.47
2023-02-08T10:44:04.611Z,6.59
2023-02-08T10:46:42.432Z,6.74
2023-02-08T10:49:20.473Z,6.82
2023-02-08T10:51:47.637Z,7.05
2023-02-08T10:54:15.241Z,7.20
2023-02-08T10:56:47.134Z,7.35
2023-02-08T10:59:15.308Z,7.50
2023-02-08T11:01:42.730Z,7.62
2023-02-08T11:04:12.372Z,7.88
2023-02-08T11:06:50.633Z,8.07
2023-02-08T11:09:32.398Z,8.35
2023-02-08T11:12:01.789Z,8.68
2023-02-08T11:14:46.041Z,8.95
2023-02-08T11:17:27.010Z,9.50
2023-02-08T11:19:53.802Z,9.86
2023-02-08T11:22:23.236Z,10.32
2023-02-08T11:25:01.843Z,10.79
2023-02-08T11:27:28.270Z,11.24
2023-02-08T11:30:13.063Z,11.69
2023-02-08T11:32:40.885Z,12.03
2023-02-08T11:35:13.619Z,12.27
2023-02-08T11:37:47.534Z,12.57
2023-02-08T11:40:21.190Z,12.98
2023-02-08T11:42:47.917Z,13.53
2023-02-08T11:45:24.040Z,13.86
2023-02-08T11:47:51.743Z,14.52
2023-02-08T11:50:27.817Z,15.10
2023-02-08T11:52:59.142Z,15.19
2023-02-08T11:55:29.358Z,15.48
2023-02-08T11:58:00.614Z,15.83
2023-02-08T12:00:28.462Z,16.21
2023-02-08T12:03:22.528Z,16.93
2023-02-08T12:06:16.785Z,18.36
2023-02-08T12:08:53.700Z,19.67
2023-02-08T12:11:26.149Z,19.27
2023-02-08T12:14:20.349Z,19.51
2023-02-08T12:16:52.779Z,20.02
2023-02-08T12:19:51.872Z,20.55
2023-02-08T12:22:24.602Z,21.33
2023-02-08T12:24:56.554Z,21.46
2023-02-08T12:27:34.349Z,21.83
2023-02-08T12:30:17.310Z,22.02
2023-02-08T12:33:01.454Z,22.21
2023-02-08T12:36:05.863Z,21.95
2023-02-08T12:39:19.411Z,21.68
2023-02-08T12:42:11.427Z,21.73
2023-02-08T12:44:54.036Z,21.77
2023-02-08T12:48:03.033Z,21.81
2023-02-08T12:50:49.302Z,22.09
2023-02-08T12:53:30.904Z,22.41
2023-02-08T12:56:07.692Z,22.30
2023-02-08T12:58:46.908Z,22.33
2023-02-08T13:01:22.682Z,22.53
2023-02-08T13:04:04.679Z,22.83
2023-02-08T13:06:41.392Z,22.84
2023-02-08T13:09:18.018Z,23.00
2023-02-08T13:11:54.485Z,23.48
2023-02-08T13:14:34.457Z,23.44
2023-02-08T13:17:10.693Z,23.70
2023-02-08T13:20:00.949Z,24.01
2023-02-08T13:22:31.893Z,24.17
2023-02-08T13:25:06.822Z,24.66
2023-02-08T13:27:34.575Z,24.64
2023-02-08T13:30:01.729Z,24.98
2023-02-08T13:32:37.062Z,24.84
2023-02-08T13:35:29.392Z,24.84
2023-02-08T13:38:04.283Z,24.70
2023-02-08T13:40:35.328Z,24.87
2023-02-08T13:43:35.775Z,24.75
2023-02-08T13:46:04.813Z,25.01
2023-02-08T13:48:56.731Z,24.87
2023-02-08T13:51:28.875Z,25.25
2023-02-08T13:53:55.390Z,25.13
2023-02-08T13:56:43.385Z,25.25
2023-02-08T13:59:28.248Z,25.56
2023-02-08T14:02:14.454Z,25.83
2023-02-08T14:04:48.646Z,25.98
2023-02-08T14:07:24.228Z,26.18
2023-02-08T14:09:53.662Z,26.30
2023-02-08T14:12:34.605Z,26.43
2023-02-08T14:15:16.437Z,26.59
2023-02-08T14:17:45.939Z,26.78
2023-02-08T14:20:40.118Z,26.16
2023-02-08T14:23:27.540Z,25.79
2023-02-08T14:25:56.794Z,26.53
2023-02-08T14:28:27.178Z,26.69
2023-02-08T14:30:57.584Z,26.43
2023-02-08T14:33:51.916Z,25.97
2023-02-08T14:36:33.858Z,25.54
2023-02-08T14:39:06.354Z,25.84
2023-02-08T14:41:44.974Z,25.67
2023-02-08T14:44:37.667Z,25.26
2023-02-08T14:47:25.892Z,25.07
2023-02-08T14:50:08.371Z,24.65
2023-02-08T14:52:35.989Z,24.69
2023-02-08T14:55:18.370Z,24.42
2023-02-08T14:57:45.107Z,24.39
2023-02-08T15:00:20.905Z,22.75
2023-02-08T15:02:48.391Z,20.68
2023-02-08T15:05:26.131Z,19.11
2023-02-08T15:07:57.034Z,18.35
2023-02-08T15:10:25.862Z,17.66
2023-02-08T15:13:03.703Z,17.10
2023-02-08T15:15:35.424Z,16.47
2023-02-08T15:18:04.597Z,16.03
2023-02-08T15:20:34.335Z,15.68
2023-02-08T15:23:20.128Z,15.27
2023-02-08T15:26:04.573Z,15.00
2023-02-08T15:28:35.864Z,14.70
2023-02-08T15:31:06.320Z,14.37
2023-02-08T15:33:33.942Z,14.00
2023-02-08T15:36:31.591Z,13.61
2023-02-08T15:39:01.327Z,13.44
2023-02-08T15:41:34.277Z,13.31
2023-02-08T15:44:03.103Z,13.07
2023-02-08T15:46:30.729Z,12.78
2023-02-08T15:48:59.224Z,12.51
2023-02-08T15:51:27.424Z,12.08
2023-02-08T15:53:55.735Z,11.77
2023-02-08T15:56:38.704Z,11.43
2023-02-08T15:59:16.167Z,11.28
2023-02-08T16:01:47.346Z,11.14
2023-02-08T16:04:13.829Z,10.94
2023-02-08T16:06:48.155Z,10.71
2023-02-08T16:09:21.850Z,10.42
2023-02-08T16:11:52.933Z,10.25
2023-02-08T16:14:27.839Z,10.08
2023-02-08T16:16:57.565Z,9.83
2023-02-08T16:19:32.295Z,9.62
2023-02-08T16:22:20.748Z,9.42
2023-02-08T16:24:47.768Z,9.34
2023-02-08T16:27:29.384Z,9.10
2023-02-08T16:29:56.441Z,8.95
2023-02-08T16:32:32.454Z,8.82
2023-02-08T16:35:01.306Z,8.58
2023-02-08T16:37:35.123Z,8.39
2023-02-08T16:40:39.516Z,8.10
2023-02-08T16:43:28.562Z,7.98
2023-02-08T16:46:15.317Z,7.81
2023-02-08T16:48:42.802Z,7.61
2023-02-08T16:51:15.676Z,7.48
2023-02-08T16:53:43.157Z,7.33
2023-02-08T16:56:11.361Z,7.13
2023-02-08T16:58:38.466Z,6.94
2023-02-08T17:01:05.429Z,6.86
2023-02-08T17:03:32.798Z,6.74
2023-02-08T17:06:00.985Z,6.60
2023-02-08T17:08:27.653Z,6.50
2023-02-08T17:10:58.769Z,6.37
2023-02-08T17:13:28.549Z,6.27
2023-02-08T17:15:55.321Z,6.10
2023-02-08T17:18:21.910Z,5.96
2023-02-08T17:20:48.398Z,5.91
2023-02-08T17:23:18.232Z,5.81
2023-02-08T17:25:45.132Z,5.70
2023-02-08T17:28:17.408Z,5.61
2023-02-08T17:30:44.998Z,5.50
2023-02-08T17:33:17.944Z,5.36
2023-02-08T17:35:46.960Z,5.29
2023-02-08T17:38:15.407Z,5.20
2023-02-08T17:40:42.765Z,5.08
2023-02-08T17:43:12.303Z,4.99
2023-02-08T17:45:40.905Z,4.91
2023-02-08T17:48:08.308Z,4.87
2023-02-08T17:50:35.806Z,4.78
2023-02-08T17:53:03.964Z,4.68
2023-02-08T17:55:30.976Z,4.58
2023-02-08T17:57:57.498Z,4.50
2023-02-08T18:00:25.273Z,4.43
2023-02-08T18:02:54.720Z,4.30
2023-02-08T18:05:25.174Z,4.19
2023-02-08T18:07:53.393Z,4.21
2023-02-08T18:10:20.298Z,4.08
2023-02-08T18:12:47.273Z,4.08
2023-02-08T18:15:16.376Z,4.02
2023-02-08T18:17:44.006Z,3.95
2023-02-08T18:20:14.084Z,3.84
2023-02-08T18:22:41.980Z,3.84
2023-02-08T18:25:09.263Z,3.80
2023-02-08T18:27:35.856Z,3.75
2023-02-08T18:30:02.352Z,3.70
2023-02-08T18:32:28.879Z,3.64
2023-02-08T18:34:55.828Z,3.60
2023-02-08T18:37:23.266Z,3.52
2023-02-08T18:39:51.282Z,3.43
2023-02-08T18:42:17.981Z,3.34
2023-02-08T18:44:44.470Z,3.34
2023-02-08T18:47:11.268Z,3.33
2023-02-08T18:49:40.714Z,3.24
2023-02-08T18:52:09.416Z,3.18
2023-02-08T18:54:37.699Z,3.11
2023-02-08T18:57:06.121Z,3.08
2023-02-08T18:59:33.485Z,3.03
2023-02-08T19:02:01.601Z,2.90
2023-02-08T19:04:28.850Z,2.78
2023-02-08T19:06:55.412Z,2.70
2023-02-08T19:09:21.928Z,2.73
2023-02-08T19:11:48.874Z,2.67
2023-02-08T19:14:15.864Z,2.61
2023-02-08T19:16:43.141Z,2.50
2023-02-08T19:19:10.480Z,2.52
2023-02-08T19:21:37.083Z,2.52
2023-02-08T19:24:04.145Z,2.56
2023-02-08T19:26:33.327Z,2.54
2023-02-08T19:29:03.379Z,2.51
2023-02-08T19:31:30.832Z,2.41
2023-02-08T19:34:00.376Z,2.39
2023-02-08T19:36:49.461Z,2.20
2023-02-08T19:39:18.216Z,2.25
2023-02-08T19:41:45.563Z,2.39
2023-02-08T19:44:15.244Z,2.59
2023-02-08T19:46:45.283Z,2.61
2023-02-08T19:49:12.931Z,2.62
2023-02-08T19:51:39.969Z,2.62
2023-02-08T19:54:10.282Z,2.59
2023-02-08T19:56:37.214Z,2.59
2023-02-08T19:59:05.590Z,2.53
2023-02-08T20:01:34.353Z,2.51
2023-02-08T20:04:01.821Z,2.43
2023-02-08T20:06:34.465Z,2.42
2023-02-08T20:09:01.740Z,2.36
2023-02-08T20:11:33.975Z,2.31
2023-02-08T20:14:01.128Z,2.32
2023-02-08T20:16:31.651Z,2.29
2023-02-08T20:18:59.614Z,2.24
2023-02-08T20:21:26.619Z,2.18
2023-02-08T20:23:53.176Z,2.21
2023-02-08T20:26:19.617Z,2.19
2023-02-08T20:28:51.900Z,2.13
2023-02-08T20:31:33.242Z,2.05
2023-02-08T20:34:03.345Z,2.03
2023-02-08T20:36:40.578Z,2.02
2023-02-08T20:39:09.060Z,1.93
2023-02-08T20:41:36.099Z,1.88
2023-02-08T20:44:02.584Z,1.85
2023-02-08T20:46:33.706Z,1.78
2023-02-08T20:49:02.057Z,1.74
2023-02-08T20:51:29.926Z,1.72
2023-02-08T20:53:58.140Z,1.65
2023-02-08T20:56:27.442Z,1.58
2023-02-08T20:58:55.193Z,1.59
2023-02-08T21:01:24.543Z,1.54
2023-02-08T21:03:53.916Z,1.56
2023-02-08T21:06:26.398Z,1.58
2023-02-08T21:08:55.291Z,1.57
2023-02-08T21:11:24.317Z,1.52
2023-02-08T21:13:51.210Z,1.54
2023-02-08T21:16:18.672Z,1.51
2023-02-08T21:18:45.856Z,1.43
2023-02-08T21:21:12.427Z,1.38
2023-02-08T21:23:38.957Z,1.36
2023-02-08T21:26:07.044Z,1.30
2023-02-08T21:28:34.367Z,1.24
2023-02-08T21:31:10.767Z,1.21
2023-02-08T21:33:37.368Z,1.08
2023-02-08T21:36:06.941Z,1.06
2023-02-08T21:38:33.473Z,1.00
2023-02-08T21:41:06.000Z,1.04
2023-02-08T21:43:32.443Z,0.97
2023-02-08T21:46:03.582Z,0.96
2023-02-08T21:48:30.235Z,0.92
2023-02-08T21:51:18.945Z,0.86
2023-02-08T21:54:04.047Z,0.85
2023-02-08T21:56:30.493Z,0.73
2023-02-08T21:58:56.952Z,0.65
2023-02-08T22:01:23.511Z,0.60
2023-02-08T22:03:50.036Z,0.54
2023-02-08T22:06:16.486Z,0.54
2023-02-08T22:08:43.021Z,0.57
2023-02-08T22:11:09.468Z,0.59
2023-02-08T22:13:35.958Z,0.51
2023-02-08T22:16:07.738Z,0.50
2023-02-08T22:18:34.298Z,0.42
2023-02-08T22:21:04.194Z,0.40
2023-02-08T22:23:30.769Z,0.39
2023-02-08T22:25:57.237Z,0.39
2023-02-08T22:28:23.754Z,0.38
2023-02-08T22:30:50.712Z,0.36
2023-02-08T22:33:17.371Z,0.30
2023-02-08T22:35:43.887Z,0.25
2023-02-08T22:38:10.612Z,0.18
2023-02-08T22:40:37.189Z,0.13
2023-02-08T22:43:03.656Z,0.18
2023-02-08T22:45:30.097Z,0.16
2023-02-08T22:47:56.565Z,0.11
2023-02-08T22:50:23.024Z,0.08
2023-02-08T22:52:49.559Z,0.05
2023-02-08T22:55:16.097Z,0.02
2023-02-08T22:57:43.515Z,-0.13
2023-02-08T23:00:12.701Z,-0.20
2023-02-08T23:02:39.219Z,-0.18
2023-02-08T23:05:06.004Z,-0.20
2023-02-08T23:07:32.561Z,-0.16
2023-02-08T23:09:59.002Z,-0.16
2023-02-08T23:12:25.537Z,-0.16
2023-02-08T23:14:52.052Z,-0.18
2023-02-08T23:17:18.599Z,-0.20
2023-02-08T23:19:45.073Z,-0.27
2023-02-08T23:22:11.546Z,-0.27
2023-02-08T23:24:38.031Z,-0.30
2023-02-08T23:27:04.583Z,-0.35
2023-02-08T23:29:31.036Z,-0.36
2023-02-08T23:31:57.567Z,-0.36
2023-02-08T23:34:24.077Z,-0.39
2023-02-08T23:36:50.620Z,-0.53
2023-02-08T23:39:17.140Z,-0.49
2023-02-08T23:41:43.661Z,-0.59
2023-02-08T23:44:10.112Z,-0.58
2023-02-08T23:46:36.770Z,-0.54
2023-02-08T23:49:03.350Z,-0.51
2023-02-08T23:51:29.891Z,-0.50
2023-02-08T23:53:56.407Z,-0.52
2023-02-08T23:56:25.519Z,-0.55
2023-02-08T23:58:54.495Z,-0.54
